Time;durP1;ratioP1;P1;durP2;ratioP2;P2;SDS_P1;SDS_P2;PMS_P1;PMS_P2;Temp;Humidity;BMP_temperature;BMP_pressure;BME280_temperature;BME280_humidity;BME280_pressure;Samples;Min_cycle;Max_cycle;Signal;HPM_P1;HPM_P2
2021/05/01 00:00:49;;;;;;;48.75;35.25;;;8.60;81.70;;;;;;5091088;28;20386;-72
2021/05/01 00:03:14;;;;;;;46.40;35.03;;;8.70;81.70;;;;;;5081182;28;20047;-72
2021/05/01 00:05:40;;;;;;;44.15;34.33;;;8.70;81.40;;;;;;5069885;28;20040;-72
2021/05/01 00:08:06;;;;;;;43.40;34.85;;;8.70;81.30;;;;;;5086657;28;20473;-72
2021/05/01 00:10:31;;;;;;;46.63;35.58;;;8.70;81.20;;;;;;5068806;28;20037;-72
2021/05/01 00:12:57;;;;;;;52.53;39.53;;;8.70;81.20;;;;;;5077407;28;20032;-72
2021/05/01 00:15:23;;;;;;;50.10;36.25;;;8.70;81.40;;;;;;5081793;28;20024;-72
2021/05/01 00:17:49;;;;;;;49.90;38.08;;;8.60;81.50;;;;;;5067799;28;20031;-72
2021/05/01 00:20:14;;;;;;;45.08;34.28;;;8.60;82.30;;;;;;5089210;28;20045;-73
2021/05/01 00:22:40;;;;;;;42.75;32.38;;;8.50;81.90;;;;;;5051629;28;20370;-72
2021/05/01 00:25:06;;;;;;;41.55;31.17;;;8.50;82.00;;;;;;5080463;28;20028;-72
2021/05/01 00:27:32;;;;;;;47.92;33.28;;;8.50;82.00;;;;;;5089282;28;20032;-72
2021/05/01 00:29:57;;;;;;;45.97;31.63;;;8.50;81.90;;;;;;5064810;28;20036;-72
2021/05/01 00:32:23;;;;;;;41.58;29.83;;;8.40;81.70;;;;;;5058450;28;20540;-72
2021/05/01 00:34:49;;;;;;;38.85;30.35;;;8.50;81.60;;;;;;5079929;28;20028;-72
2021/05/01 00:37:14;;;;;;;37.80;29.17;;;8.40;81.60;;;;;;5059160;28;20040;-72
2021/05/01 00:39:40;;;;;;;39.47;27.33;;;8.40;81.70;;;;;;5072784;28;20032;-72
2021/05/01 00:42:05;;;;;;;40.63;28.20;;;8.40;81.60;;;;;;5059880;28;20032;-72
2021/05/01 00:44:31;;;;;;;42.70;29.52;;;8.40;81.40;;;;;;5078037;28;20036;-72
2021/05/01 00:46:57;;;;;;;44.10;29.10;;;8.40;81.30;;;;;;5073903;28;20035;-72
2021/05/01 00:49:22;;;;;;;38.67;28.83;;;8.30;81.30;;;;;;5087330;28;20107;-72
2021/05/01 00:51:48;;;;;;;37.40;29.02;;;8.30;81.30;;;;;;5073394;28;20032;-72
2021/05/01 00:54:14;;;;;;;40.75;29.08;;;8.30;81.30;;;;;;5087930;28;20025;-72
2021/05/01 00:56:41;;;;;;;38.58;29.17;;;8.20;81.30;;;;;;5090884;28;20020;-72
2021/05/01 00:59:07;;;;;;;43.55;30.88;;;8.20;81.40;;;;;;5080898;28;20047;-72
2021/05/01 01:01:32;;;;;;;43.08;31.23;;;8.10;81.40;;;;;;5088941;28;20025;-72
2021/05/01 01:03:58;;;;;;;38.10;30.73;;;8.10;81.40;;;;;;5105723;28;20546;-72
2021/05/01 01:06:23;;;;;;;40.75;31.00;;;8.10;81.40;;;;;;5064779;28;20059;-72
2021/05/01 01:08:49;;;;;;;40.72;31.42;;;8.00;81.30;;;;;;5070957;28;20036;-72
2021/05/01 01:11:15;;;;;;;42.63;30.25;;;8.00;81.30;;;;;;5057585;28;20027;-72
2021/05/01 01:13:41;;;;;;;42.65;29.92;;;7.90;81.40;;;;;;5087373;28;20036;-72
2021/05/01 01:16:06;;;;;;;44.95;33.33;;;7.90;81.30;;;;;;5087284;28;20035;-72
2021/05/01 01:18:33;;;;;;;43.30;29.88;;;7.80;81.30;;;;;;5093332;28;20028;-72
2021/05/01 01:21:02;;;;;;;37.85;29.73;;;7.80;81.60;;;;;;5087441;28;20036;-72
2021/05/01 01:23:28;;;;;;;41.45;30.80;;;7.70;81.50;;;;;;5072959;28;20075;-73
2021/05/01 01:25:55;;;;;;;37.90;28.80;;;7.70;81.40;;;;;;5073738;28;20032;-72
2021/05/01 01:28:21;;;;;;;37.33;28.48;;;7.60;81.50;;;;;;5077106;28;20058;-72
2021/05/01 01:30:46;;;;;;;44.53;31.50;;;7.60;81.50;;;;;;5077358;28;20024;-72
2021/05/01 01:33:12;;;;;;;45.25;31.23;;;7.60;82.20;;;;;;5067864;28;20032;-72
2021/05/01 01:35:39;;;;;;;43.67;31.63;;;7.60;81.60;;;;;;5064096;28;20391;-72
2021/05/01 01:38:05;;;;;;;41.42;31.52;;;7.60;81.60;;;;;;5091481;28;20024;-72
2021/05/01 01:40:32;;;;;;;41.97;31.90;;;7.50;81.60;;;;;;5093734;28;20029;-71
2021/05/01 01:42:57;;;;;;;44.45;33.33;;;7.50;81.70;;;;;;5079102;28;20031;-71
2021/05/01 01:45:27;;;;;;;49.53;34.75;;;7.50;81.80;;;;;;5090807;28;20024;-72
2021/05/01 01:47:53;;;;;;;47.63;36.47;;;7.40;81.80;;;;;;5074186;28;20024;-72
2021/05/01 01:50:19;;;;;;;48.92;35.35;;;7.40;81.80;;;;;;5086078;28;20505;-72
2021/05/01 01:52:46;;;;;;;47.85;35.88;;;7.40;82.00;;;;;;5055062;28;20039;-72
2021/05/01 01:55:15;;;;;;;44.78;34.63;;;7.40;81.90;;;;;;5072734;28;20377;-72
2021/05/01 01:57:41;;;;;;;41.63;32.95;;;7.30;81.90;;;;;;5081767;28;20028;-72
2021/05/01 02:00:12;;;;;;;46.25;32.85;;;7.30;81.90;;;;;;5089104;28;20024;-73
2021/05/01 02:02:39;;;;;;;52.38;35.03;;;7.30;82.00;;;;;;5081141;28;20028;-72
2021/05/01 02:05:07;;;;;;;46.10;33.13;;;7.30;82.00;;;;;;5061419;28;20388;-72
2021/05/01 02:07:32;;;;;;;48.45;34.38;;;7.20;82.00;;;;;;5101038;28;20036;-72
2021/05/01 02:09:58;;;;;;;46.08;35.65;;;7.20;81.90;;;;;;5062422;28;20036;-72
2021/05/01 02:12:24;;;;;;;47.53;33.83;;;7.20;81.90;;;;;;5074686;28;20389;-72
2021/05/01 02:14:49;;;;;;;45.17;32.20;;;7.20;81.90;;;;;;5072522;28;20504;-72
2021/05/01 02:17:15;;;;;;;47.42;33.85;;;7.20;81.80;;;;;;5068561;28;20043;-72
2021/05/01 02:19:41;;;;;;;49.28;35.55;;;7.20;81.60;;;;;;5071144;28;20044;-71
2021/05/01 02:22:06;;;;;;;47.70;32.90;;;7.20;81.40;;;;;;5067643;28;20127;-72
2021/05/01 02:24:32;;;;;;;47.08;32.47;;;7.20;81.40;;;;;;5092441;28;20036;-72
2021/05/01 02:26:58;;;;;;;45.13;31.55;;;7.20;81.40;;;;;;5057150;28;20036;-72
2021/05/01 02:29:23;;;;;;;39.88;29.98;;;7.10;81.70;;;;;;5088561;28;20036;-72
2021/05/01 02:31:49;;;;;;;40.63;31.65;;;7.10;81.00;;;;;;5069087;28;20120;-72
2021/05/01 02:34:15;;;;;;;40.60;30.05;;;7.10;81.00;;;;;;5085407;28;20115;-72
2021/05/01 02:36:41;;;;;;;40.08;28.33;;;7.00;80.90;;;;;;5084914;28;20431;-72
2021/05/01 02:39:07;;;;;;;41.10;30.20;;;7.00;80.80;;;;;;5080696;28;20477;-72
2021/05/01 02:41:34;;;;;;;39.78;29.02;;;7.00;80.70;;;;;;5082043;28;20053;-72
2021/05/01 02:44:00;;;;;;;35.75;27.42;;;6.90;81.30;;;;;;5088825;28;20128;-73
2021/05/01 02:46:26;;;;;;;34.83;26.20;;;6.80;80.60;;;;;;5090449;28;20033;-72
2021/05/01 02:48:51;;;;;;;37.10;27.63;;;6.80;80.60;;;;;;5076252;28;20081;-72
2021/05/01 02:51:17;;;;;;;36.55;28.65;;;6.70;80.60;;;;;;5090109;28;20424;-72
2021/05/01 02:53:42;;;;;;;37.00;27.73;;;6.60;80.50;;;;;;5060644;28;20040;-72
2021/05/01 02:56:08;;;;;;;39.50;29.00;;;6.60;80.70;;;;;;5088013;28;20024;-72
2021/05/01 02:58:34;;;;;;;41.47;28.73;;;6.50;80.80;;;;;;5085935;28;20032;-73
2021/05/01 03:00:59;;;;;;;38.75;26.63;;;6.50;81.00;;;;;;5078272;28;20020;-72
2021/05/01 03:03:25;;;;;;;43.10;28.90;;;6.50;81.00;;;;;;5057920;28;20112;-71
2021/05/01 03:05:51;;;;;;;37.72;27.70;;;6.40;81.10;;;;;;5060353;28;20375;-72
2021/05/01 03:08:16;;;;;;;32.75;25.98;;;6.40;81.30;;;;;;5057426;28;20033;-72
2021/05/01 03:10:42;;;;;;;38.58;28.13;;;6.40;81.40;;;;;;5080624;28;20031;-72
2021/05/01 03:13:08;;;;;;;34.78;26.42;;;6.40;81.50;;;;;;5075703;28;20385;-72
2021/05/01 03:15:33;;;;;;;37.63;26.88;;;6.40;81.50;;;;;;5065285;28;20083;-72
2021/05/01 03:17:59;;;;;;;40.38;26.80;;;6.40;81.50;;;;;;5074268;28;20051;-72
2021/05/01 03:20:24;;;;;;;37.33;25.48;;;6.30;81.50;;;;;;5070023;28;20491;-72
2021/05/01 03:22:50;;;;;;;33.72;25.02;;;6.30;81.50;;;;;;5057453;28;20103;-72
2021/05/01 03:25:17;;;;;;;33.47;24.92;;;6.20;81.70;;;;;;5077335;28;20032;-72
2021/05/01 03:27:44;;;;;;;41.67;28.30;;;6.20;81.70;;;;;;5056163;28;20473;-72
2021/05/01 03:30:13;;;;;;;33.85;26.05;;;6.20;81.70;;;;;;5063159;28;20119;-72
2021/05/01 03:32:39;;;;;;;39.58;25.52;;;6.10;81.80;;;;;;5075669;28;20035;-72
2021/05/01 03:35:06;;;;;;;35.08;25.55;;;6.10;81.70;;;;;;5060208;28;20067;-72
2021/05/01 03:37:32;;;;;;;38.95;24.98;;;6.10;81.70;;;;;;5076760;28;20031;-72
2021/05/01 03:39:57;;;;;;;36.75;25.08;;;6.10;81.70;;;;;;5070907;28;20388;-72
2021/05/01 03:42:23;;;;;;;36.90;25.63;;;6.00;81.50;;;;;;5092888;28;20036;-72
2021/05/01 03:44:49;;;;;;;38.60;25.13;;;6.00;81.60;;;;;;5079738;28;20493;-72
2021/05/01 03:47:14;;;;;;;40.22;25.23;;;6.00;81.60;;;;;;5074337;28;20047;-72
2021/05/01 03:49:40;;;;;;;36.33;26.80;;;5.90;81.60;;;;;;5081655;28;20366;-72
2021/05/01 03:52:06;;;;;;;37.75;26.30;;;5.80;81.50;;;;;;5091108;28;20062;-72
2021/05/01 03:54:32;;;;;;;43.63;27.58;;;5.80;81.60;;;;;;5075946;28;20458;-71
2021/05/01 03:56:58;;;;;;;31.35;24.65;;;5.80;81.60;;;;;;5082747;28;20024;-73
2021/05/01 03:59:24;;;;;;;32.55;24.90;;;5.80;81.70;;;;;;5090477;28;20111;-72
2021/05/01 04:01:50;;;;;;;36.10;25.52;;;5.70;81.60;;;;;;5069206;28;20405;-72
2021/05/01 04:04:17;;;;;;;35.78;26.33;;;5.70;81.60;;;;;;5062738;28;20046;-72
2021/05/01 04:06:42;;;;;;;39.53;26.83;;;5.70;81.60;;;;;;5089825;28;20020;-72
2021/05/01 04:09:08;;;;;;;43.78;29.38;;;5.70;81.70;;;;;;5061470;28;20362;-72
2021/05/01 04:11:34;;;;;;;40.65;29.05;;;5.70;81.70;;;;;;5076557;28;20024;-72
2021/05/01 04:14:00;;;;;;;38.38;25.60;;;5.60;81.80;;;;;;5078732;28;20028;-72
2021/05/01 04:16:26;;;;;;;42.40;27.58;;;5.60;81.90;;;;;;5085221;28;20055;-72
2021/05/01 04:18:51;;;;;;;34.70;25.17;;;5.60;81.90;;;;;;5068140;28;20051;-71
2021/05/01 04:21:17;;;;;;;35.03;24.45;;;5.50;81.80;;;;;;5088243;28;20039;-72
2021/05/01 04:23:44;;;;;;;35.90;24.67;;;5.50;81.80;;;;;;5092459;28;20028;-72
2021/05/01 04:26:09;;;;;;;39.63;26.25;;;5.50;81.80;;;;;;5090581;28;20029;-71
2021/05/01 04:28:35;;;;;;;32.97;25.20;;;5.50;81.90;;;;;;5086252;28;20043;-72
2021/05/01 04:31:02;;;;;;;30.70;24.27;;;5.40;81.90;;;;;;5075446;28;20028;-72
2021/05/01 04:33:28;;;;;;;33.67;24.85;;;5.40;81.90;;;;;;5061897;28;20048;-72
2021/05/01 04:35:54;;;;;;;32.15;24.15;;;5.40;81.90;;;;;;5062935;28;20020;-72
2021/05/01 04:38:21;;;;;;;31.35;24.98;;;5.40;81.80;;;;;;5059370;28;20052;-72
2021/05/01 04:40:46;;;;;;;34.60;23.92;;;5.50;81.80;;;;;;5069335;28;20462;-72
2021/05/01 04:43:12;;;;;;;40.08;26.17;;;5.50;81.60;;;;;;5072890;28;20039;-72
2021/05/01 04:45:39;;;;;;;48.40;28.50;;;5.50;81.50;;;;;;5079751;28;20485;-71
2021/05/01 04:48:06;;;;;;;38.88;26.85;;;5.50;81.50;;;;;;5071316;28;20040;-72
2021/05/01 04:50:32;;;;;;;36.85;25.27;;;5.50;81.40;;;;;;5075748;28;20027;-72
2021/05/01 04:52:57;;;;;;;42.75;27.42;;;5.50;81.50;;;;;;5055575;28;20431;-72
2021/05/01 04:55:25;;;;;;;40.65;27.42;;;5.60;81.40;;;;;;5075838;28;20054;-72
2021/05/01 04:57:52;;;;;;;39.22;26.85;;;5.60;81.40;;;;;;5067243;28;20085;-72
2021/05/01 05:00:21;;;;;;;40.20;26.58;;;5.70;81.20;;;;;;5078885;28;20042;-72
2021/05/01 05:02:47;;;;;;;39.58;26.58;;;5.70;81.10;;;;;;5089512;28;20385;-72
2021/05/01 05:05:14;;;;;;;39.33;28.08;;;5.70;81.00;;;;;;5073423;28;20031;-72
2021/05/01 05:07:40;;;;;;;39.85;29.58;;;5.70;81.00;;;;;;5092013;28;20028;-72
2021/05/01 05:10:08;;;;;;;45.33;30.52;;;5.70;81.10;;;;;;5089693;28;20028;-73
2021/05/01 05:12:33;;;;;;;44.67;30.67;;;5.70;81.30;;;;;;5073033;28;20025;-72
2021/05/01 05:14:59;;;;;;;44.30;30.60;;;5.70;81.30;;;;;;5076455;28;20029;-72
2021/05/01 05:17:25;;;;;;;41.83;30.75;;;5.70;81.30;;;;;;5071904;28;20374;-72
2021/05/01 05:19:51;;;;;;;46.25;31.42;;;5.80;81.30;;;;;;5073418;28;20074;-72
2021/05/01 05:22:16;;;;;;;40.70;29.20;;;5.80;81.30;;;;;;5091928;28;20039;-72
2021/05/01 05:24:42;;;;;;;42.08;29.38;;;5.90;81.40;;;;;;5090914;28;20036;-71
2021/05/01 05:27:08;;;;;;;46.10;30.25;;;6.00;81.50;;;;;;5061456;28;20498;-73
2021/05/01 05:29:34;;;;;;;43.53;30.88;;;6.00;81.50;;;;;;5060473;28;20191;-72
2021/05/01 05:32:00;;;;;;;48.33;30.90;;;6.10;81.60;;;;;;5056188;28;20032;-72
2021/05/01 05:34:26;;;;;;;38.20;28.80;;;6.20;81.70;;;;;;5108021;28;20066;-72
2021/05/01 05:36:51;;;;;;;44.58;30.20;;;6.20;81.70;;;;;;5091236;28;20052;-72
2021/05/01 05:39:17;;;;;;;43.38;32.50;;;6.30;81.80;;;;;;5090766;28;20077;-71
2021/05/01 05:41:44;;;;;;;49.83;35.17;;;6.30;81.80;;;;;;5065341;28;20025;-72
2021/05/01 05:44:11;;;;;;;52.58;34.33;;;6.40;81.90;;;;;;5093670;28;20056;-72
2021/05/01 05:46:37;;;;;;;48.97;33.22;;;6.40;82.10;;;;;;5091276;28;20035;-72
2021/05/01 05:49:03;;;;;;;47.75;33.22;;;6.50;82.20;;;;;;5092924;28;20028;-72
2021/05/01 05:51:29;;;;;;;42.50;32.33;;;6.60;82.20;;;;;;5107764;28;20028;-72
2021/05/01 05:53:54;;;;;;;38.80;31.05;;;6.60;82.30;;;;;;5092961;28;20074;-72
2021/05/01 05:56:20;;;;;;;44.25;31.00;;;6.70;82.90;;;;;;5080283;28;20028;-72
2021/05/01 05:58:48;;;;;;;45.80;35.20;;;6.70;82.20;;;;;;5062318;28;20149;-72
2021/05/01 06:01:14;;;;;;;48.35;34.15;;;6.80;82.20;;;;;;5097199;28;20015;-72
2021/05/01 06:03:40;;;;;;;46.60;34.13;;;6.90;82.10;;;;;;5059250;28;20036;-72
2021/05/01 06:06:12;;;;;;;52.40;37.45;;;7.00;82.10;;;;;;5068476;28;20503;-72
2021/05/01 06:08:38;;;;;;;48.10;34.42;;;7.10;82.40;;;;;;5071370;28;20122;-72
2021/05/01 06:11:04;;;;;;;41.50;31.08;;;7.10;82.40;;;;;;5073784;28;20086;-72
2021/05/01 06:13:33;;;;;;;42.63;31.42;;;7.20;82.40;;;;;;5097445;28;20024;-71
2021/05/01 06:16:01;;;;;;;59.77;38.23;;;7.30;82.30;;;;;;5092532;28;20027;-71
2021/05/01 06:18:32;;;;;;;46.70;31.88;;;7.40;82.30;;;;;;5077926;28;20023;-72
2021/05/01 06:20:58;;;;;;;38.97;28.95;;;7.40;82.40;;;;;;5086051;28;20103;-72
2021/05/01 06:23:24;;;;;;;43.08;30.90;;;7.40;82.20;;;;;;5083906;28;20099;-72
2021/05/01 06:25:51;;;;;;;49.15;32.58;;;7.50;82.20;;;;;;5096586;28;20075;-72
2021/05/01 06:28:17;;;;;;;40.65;28.20;;;7.60;82.30;;;;;;5071537;28;20033;-73
2021/05/01 06:30:44;;;;;;;42.30;28.42;;;7.70;82.20;;;;;;5087180;28;20555;-72
2021/05/01 06:33:12;;;;;;;41.15;29.33;;;7.90;81.90;;;;;;5078257;28;20515;-72
2021/05/01 06:35:39;;;;;;;41.30;28.27;;;7.90;82.00;;;;;;5084998;28;20029;-72
2021/05/01 06:38:05;;;;;;;35.08;28.15;;;8.00;82.00;;;;;;5070483;28;20036;-72
2021/05/01 06:40:34;;;;;;;38.75;28.00;;;8.10;82.10;;;;;;5084773;28;20103;-72
2021/05/01 06:43:27;;;;;;;35.10;25.83;;;8.30;81.90;;;;;;5065526;28;20032;-72
2021/05/01 06:45:53;;;;;;;33.97;25.10;;;8.40;81.40;;;;;;5050680;28;20552;-72
2021/05/01 06:48:29;;;;;;;29.33;22.33;;;8.50;81.00;;;;;;5085522;28;20032;-72
2021/05/01 06:50:59;;;;;;;33.75;23.58;;;8.70;80.50;;;;;;5096007;28;20039;-72
2021/05/01 06:53:32;;;;;;;30.48;21.95;;;8.80;80.20;;;;;;5088625;28;20028;-72
2021/05/01 06:56:02;;;;;;;28.23;19.10;;;8.90;79.80;;;;;;5077682;28;20024;-72
2021/05/01 06:58:30;;;;;;;30.55;19.73;;;9.10;79.20;;;;;;5087366;28;20032;-72
2021/05/01 07:01:03;;;;;;;29.63;19.30;;;9.20;78.80;;;;;;5099335;28;20098;-72
2021/05/01 07:03:31;;;;;;;28.33;18.55;;;9.40;78.60;;;;;;5068602;28;20032;-72
2021/05/01 07:05:58;;;;;;;28.27;17.35;;;9.50;78.40;;;;;;5060748;28;20024;-72
2021/05/01 07:08:25;;;;;;;29.65;18.52;;;9.70;77.90;;;;;;5094259;28;20081;-72
2021/05/01 07:10:51;;;;;;;24.30;14.95;;;9.90;77.40;;;;;;5088045;28;20177;-72
2021/05/01 07:13:17;;;;;;;23.77;13.55;;;10.00;76.60;;;;;;5085357;28;20060;-72
2021/05/01 07:15:44;;;;;;;23.73;13.02;;;10.00;76.30;;;;;;5073321;28;20028;-72
2021/05/01 07:18:10;;;;;;;22.27;13.18;;;9.90;75.40;;;;;;5072457;28;20028;-72
2021/05/01 07:20:37;;;;;;;19.35;10.07;;;9.90;75.70;;;;;;5072816;28;20040;-72
2021/05/01 07:23:03;;;;;;;19.70;10.25;;;10.00;75.30;;;;;;5073572;28;20020;-72
2021/05/01 07:25:28;;;;;;;17.80;12.30;;;10.20;74.90;;;;;;5071255;28;20043;-72
2021/05/01 07:28:12;;;;;;;19.05;10.77;;;10.40;74.40;;;;;;5087837;28;20024;-72
2021/05/01 07:30:43;;;;;;;15.88;9.98;;;10.40;73.20;;;;;;5077959;28;20024;-72
2021/05/01 07:33:23;;;;;;;15.45;9.77;;;10.40;73.20;;;;;;5061892;28;20528;-72
2021/05/01 07:35:53;;;;;;;19.75;9.75;;;10.40;73.70;;;;;;5075131;28;20024;-72
2021/05/01 07:38:20;;;;;;;18.15;8.85;;;10.40;72.20;;;;;;5070671;28;20020;-73
2021/05/01 07:40:47;;;;;;;15.75;8.98;;;10.30;72.40;;;;;;5090075;28;20016;-72
2021/05/01 07:43:16;;;;;;;17.65;9.18;;;10.30;71.70;;;;;;5076949;28;20024;-72
2021/05/01 07:45:41;;;;;;;18.15;9.75;;;10.40;72.10;;;;;;5089598;28;20016;-73
2021/05/01 07:48:09;;;;;;;14.68;7.00;;;10.70;71.60;;;;;;5093158;28;20066;-72
2021/05/01 07:50:35;;;;;;;16.15;6.70;;;10.90;70.10;;;;;;5073600;28;20114;-72
2021/05/01 07:53:02;;;;;;;14.80;7.53;;;10.90;69.10;;;;;;5093957;28;20024;-72
2021/05/01 07:55:28;;;;;;;14.63;7.25;;;10.80;69.10;;;;;;5090205;28;20031;-72
2021/05/01 07:57:54;;;;;;;15.27;6.30;;;10.70;69.20;;;;;;5102237;28;20699;-72
2021/05/01 08:00:20;;;;;;;13.13;6.20;;;10.90;68.20;;;;;;5059976;28;20028;-72
2021/05/01 08:02:47;;;;;;;12.50;6.60;;;11.00;67.80;;;;;;5087004;28;20062;-72
2021/05/01 08:05:14;;;;;;;13.15;6.68;;;11.20;67.00;;;;;;5076759;28;20036;-72
2021/05/01 08:07:39;;;;;;;13.40;7.20;;;11.40;66.80;;;;;;5079785;28;20146;-73
2021/05/01 08:10:08;;;;;;;14.13;7.35;;;11.60;66.70;;;;;;5056590;28;20111;-73
2021/05/01 08:12:34;;;;;;;17.38;8.02;;;11.80;63.70;;;;;;5069707;28;20064;-73
2021/05/01 08:15:00;;;;;;;17.00;7.85;;;11.60;64.40;;;;;;5069687;28;20055;-73
2021/05/01 08:17:26;;;;;;;14.65;8.77;;;11.80;65.00;;;;;;5085309;28;20020;-72
2021/05/01 08:19:53;;;;;;;14.52;7.72;;;12.00;63.70;;;;;;5090243;28;20032;-73
2021/05/01 08:22:19;;;;;;;13.38;9.05;;;12.00;63.00;;;;;;5056320;28;20067;-73
2021/05/01 08:24:44;;;;;;;12.93;8.45;;;11.90;63.30;;;;;;5077820;28;20463;-73
2021/05/01 08:27:10;;;;;;;19.52;8.98;;;11.80;63.00;;;;;;5075982;28;20480;-73
2021/05/01 08:29:35;;;;;;;17.23;9.55;;;11.80;63.70;;;;;;5089487;28;20028;-73
2021/05/01 08:32:01;;;;;;;16.80;7.97;;;12.10;62.40;;;;;;5070082;28;20366;-72
2021/05/01 08:34:27;;;;;;;13.85;7.72;;;12.40;61.70;;;;;;5061152;28;21398;-73
2021/05/01 08:36:52;;;;;;;10.82;7.57;;;12.60;60.50;;;;;;5083464;28;20503;-73
2021/05/01 08:39:18;;;;;;;13.30;7.10;;;12.80;59.50;;;;;;5075893;28;20036;-72
2021/05/01 08:41:43;;;;;;;12.43;7.30;;;13.10;59.80;;;;;;5067840;28;20062;-73
2021/05/01 08:44:10;;;;;;;16.08;6.95;;;13.30;57.40;;;;;;5092517;28;20470;-73
2021/05/01 08:46:37;;;;;;;11.30;6.80;;;13.00;57.70;;;;;;5083010;28;20040;-73
2021/05/01 08:49:04;;;;;;;15.27;7.35;;;12.70;58.10;;;;;;5092109;28;20103;-73
2021/05/01 08:51:29;;;;;;;15.20;7.32;;;12.30;58.70;;;;;;5041104;28;20504;-73
2021/05/01 08:53:55;;;;;;;14.18;8.23;;;11.90;59.70;;;;;;5073920;28;20036;-73
2021/05/01 08:56:21;;;;;;;12.82;7.22;;;11.70;60.30;;;;;;5064156;28;20039;-74
2021/05/01 08:58:48;;;;;;;10.05;6.55;;;11.90;61.00;;;;;;5058136;28;20028;-73
2021/05/01 09:01:15;;;;;;;16.38;7.80;;;12.40;60.50;;;;;;5073367;28;20030;-73
2021/05/01 09:03:42;;;;;;;14.35;8.82;;;12.80;58.60;;;;;;5093017;28;20028;-73
2021/05/01 09:06:09;;;;;;;16.42;8.85;;;13.10;57.50;;;;;;5074984;28;20124;-72
2021/05/01 09:08:40;;;;;;;10.65;7.03;;;13.30;54.80;;;;;;5091555;28;20442;-72
2021/05/01 09:11:06;;;;;;;13.23;7.82;;;13.40;55.80;;;;;;5090086;28;20411;-73
2021/05/01 09:13:33;;;;;;;12.73;9.00;;;13.30;54.80;;;;;;5074978;28;20055;-73
2021/05/01 09:16:03;;;;;;;8.50;6.97;;;13.30;54.10;;;;;;5077604;28;20017;-73
2021/05/01 09:18:51;;;;;;;8.80;6.28;;;13.40;53.80;;;;;;5085162;28;20021;-73
2021/05/01 09:21:22;;;;;;;13.57;7.97;;;13.80;54.00;;;;;;5074657;28;20119;-73
2021/05/01 09:23:49;;;;;;;13.75;7.90;;;14.10;53.00;;;;;;5095838;28;20073;-73
2021/05/01 09:26:18;;;;;;;10.93;7.50;;;14.50;51.80;;;;;;5050259;28;20039;-73
2021/05/01 09:28:50;;;;;;;12.60;7.53;;;14.80;51.60;;;;;;5074406;28;20058;-73
2021/05/01 09:31:20;;;;;;;11.00;6.93;;;15.00;50.70;;;;;;5087045;28;20036;-73
2021/05/01 09:33:51;;;;;;;10.73;7.18;;;15.20;49.30;;;;;;5090925;28;20388;-73
2021/05/01 09:36:24;;;;;;;10.05;6.07;;;15.30;49.20;;;;;;5089803;28;20123;-73
2021/05/01 09:38:51;;;;;;;17.02;6.97;;;15.50;47.00;;;;;;5092118;28;20094;-73
2021/05/01 09:41:26;;;;;;;10.98;6.63;;;15.50;46.50;;;;;;5080341;28;20107;-73
2021/05/01 09:44:09;;;;;;;8.55;6.28;;;15.60;46.60;;;;;;5083316;28;20031;-73
2021/05/01 09:46:38;;;;;;;13.10;6.85;;;15.60;46.50;;;;;;5091651;28;20040;-73
2021/05/01 09:49:12;;;;;;;11.40;6.82;;;15.60;45.60;;;;;;5084648;28;20028;-74
2021/05/01 09:51:52;;;;;;;8.85;6.95;;;15.80;46.00;;;;;;5055138;28;20508;-74
2021/05/01 09:54:30;;;;;;;7.65;6.05;;;16.10;46.60;;;;;;5084569;28;20028;-74
2021/05/01 09:57:10;;;;;;;11.70;6.38;;;16.40;46.30;;;;;;5092368;28;20016;-74
2021/05/01 09:59:44;;;;;;;10.70;7.03;;;16.60;45.50;;;;;;5092884;28;20024;-74
2021/05/01 10:02:12;;;;;;;11.63;6.68;;;16.30;45.40;;;;;;5054101;28;20021;-75
2021/05/01 10:04:39;;;;;;;9.35;6.43;;;16.00;45.60;;;;;;5073306;28;20035;-75
2021/05/01 10:07:12;;;;;;;11.20;6.40;;;16.10;46.10;;;;;;5059369;28;20498;-76
2021/05/01 10:09:39;;;;;;;10.57;6.68;;;16.30;45.40;;;;;;5092720;28;20511;-75
2021/05/01 10:12:05;;;;;;;9.98;6.40;;;16.50;44.10;;;;;;5081281;28;20027;-75
2021/05/01 10:14:35;;;;;;;9.13;5.60;;;16.60;44.40;;;;;;5072965;28;20115;-75
2021/05/01 10:17:01;;;;;;;8.52;5.03;;;16.90;43.80;;;;;;5108576;28;20065;-76
2021/05/01 10:19:49;;;;;;;9.13;4.72;;;17.10;43.00;;;;;;5089888;28;20020;-75
2021/05/01 10:22:29;;;;;;;9.13;4.00;;;17.30;41.20;;;;;;5090814;28;20523;-76
2021/05/01 10:24:57;;;;;;;7.75;3.50;;;17.40;39.40;;;;;;5079378;28;20401;-76
2021/05/01 10:27:23;;;;;;;10.30;3.92;;;17.20;39.60;;;;;;5072831;28;20407;-75
2021/05/01 10:33:09;;;;;;;7.00;3.55;;;16.50;40.50;;;;;;5081580;28;20028;-76
2021/05/01 10:35:39;;;;;;;8.90;4.20;;;16.10;41.50;;;;;;5061380;28;20031;-76
2021/05/01 10:38:07;;;;;;;11.07;4.20;;;15.80;42.60;;;;;;5087107;28;20020;-76
2021/05/01 10:40:50;;;;;;;6.15;3.88;;;15.70;43.30;;;;;;5050934;28;20058;-76
2021/05/01 10:43:22;;;;;;;6.22;3.67;;;15.90;42.90;;;;;;5082081;28;20024;-76
2021/05/01 10:45:49;;;;;;;5.50;3.33;;;15.90;42.60;;;;;;5074881;28;20071;-76
2021/05/01 10:48:15;;;;;;;5.47;3.10;;;15.90;42.30;;;;;;5074259;28;20036;-75
2021/05/01 10:50:40;;;;;;;5.70;3.28;;;15.90;42.30;;;;;;5081887;28;20039;-75
2021/05/01 10:53:18;;;;;;;6.05;3.53;;;15.90;42.20;;;;;;5072158;28;20032;-76
2021/05/01 10:55:49;;;;;;;9.10;3.50;;;15.90;42.80;;;;;;5060859;28;20035;-76
2021/05/01 10:58:51;;;;;;;7.07;3.40;;;15.80;42.40;;;;;;5091501;28;20085;-76
2021/05/01 11:01:33;;;;;;;6.88;3.60;;;15.80;43.40;;;;;;5032238;28;20025;-76
2021/05/01 11:04:10;;;;;;;6.10;3.30;;;15.80;43.60;;;;;;5065589;28;20101;-76
2021/05/01 11:06:45;;;;;;;8.05;3.65;;;16.00;42.70;;;;;;5073629;28;20036;-76
2021/05/01 11:09:18;;;;;;;4.65;2.95;;;16.00;42.40;;;;;;5081215;28;20024;-76
2021/05/01 11:11:49;;;;;;;4.90;2.90;;;16.20;42.70;;;;;;5095623;28;20024;-76
2021/05/01 11:14:23;;;;;;;4.32;2.70;;;16.40;42.00;;;;;;5095331;28;20035;-75
2021/05/01 11:17:03;;;;;;;4.43;2.53;;;16.70;40.70;;;;;;5094196;28;20024;-76
2021/05/01 11:19:31;;;;;;;2.75;2.40;;;16.80;40.30;;;;;;5095429;28;20078;-76
2021/05/01 11:21:58;;;;;;;5.23;2.40;;;17.20;39.30;;;;;;5094230;28;20479;-76
2021/05/01 11:24:24;;;;;;;5.07;2.65;;;17.50;39.10;;;;;;5096227;28;20032;-76
2021/05/01 11:26:52;;;;;;;7.82;3.00;;;17.50;38.80;;;;;;5112212;28;20038;-76
2021/05/01 11:29:19;;;;;;;5.15;2.95;;;17.60;39.40;;;;;;5095255;28;20016;-76
2021/05/01 11:31:46;;;;;;;6.25;2.90;;;17.70;39.10;;;;;;5094912;28;20074;-75
2021/05/01 11:34:14;;;;;;;6.38;2.83;;;17.70;38.80;;;;;;5076389;28;20062;-76
2021/05/01 11:36:53;;;;;;;4.00;2.70;;;17.90;39.00;;;;;;5069540;28;20545;-75
2021/05/01 11:39:19;;;;;;;;;;;18.20;39.00;;;;;;5091520;28;20285;-76
2021/05/01 11:41:46;;;;;;;4.82;2.63;;;18.40;39.10;;;;;;5110649;28;20007;-76
2021/05/01 11:44:14;;;;;;;4.13;2.58;;;18.60;38.50;;;;;;5091398;28;20409;-75
2021/05/01 11:46:47;;;;;;;4.47;2.60;;;18.80;37.30;;;;;;5065080;28;20032;-75
2021/05/01 11:49:16;;;;;;;4.32;2.30;;;18.90;36.90;;;;;;5075122;28;20366;-75
2021/05/01 11:52:09;;;;;;;5.57;2.60;;;19.00;36.60;;;;;;5086997;28;20118;-75
2021/05/01 11:54:51;;;;;;;4.85;2.53;;;19.20;36.30;;;;;;5090349;28;20115;-75
2021/05/01 11:57:26;;;;;;;6.97;2.65;;;19.40;36.20;;;;;;5071380;28;20028;-75
2021/05/01 11:59:53;;;;;;;4.10;2.50;;;19.70;35.80;;;;;;5088770;28;20024;-75
2021/05/01 12:02:21;;;;;;;5.00;2.40;;;19.90;35.50;;;;;;5095865;28;20047;-75
2021/05/01 12:04:56;;;;;;;4.82;2.53;;;20.10;35.50;;;;;;5071322;28;20562;-75
2021/05/01 12:07:33;;;;;;;3.05;2.30;;;20.20;34.80;;;;;;5092582;28;20036;-75
2021/05/01 12:10:05;;;;;;;4.40;2.30;;;20.10;34.30;;;;;;5091404;28;20024;-75
2021/05/01 12:12:33;;;;;;;5.97;2.25;;;19.70;34.20;;;;;;5076357;28;20030;-75
2021/05/01 12:15:06;;;;;;;4.30;1.97;;;19.30;35.00;;;;;;5088033;28;20020;-75
2021/05/01 12:17:32;;;;;;;3.50;2.42;;;19.30;35.40;;;;;;5087907;28;20052;-75
2021/05/01 12:20:12;;;;;;;3.30;1.63;;;19.20;35.00;;;;;;5056385;28;20029;-75
2021/05/01 12:22:38;;;;;;;4.50;2.58;;;19.10;35.40;;;;;;5069489;28;20076;-75
2021/05/01 12:25:29;;;;;;;4.70;2.30;;;18.90;35.60;;;;;;5071464;28;20035;-74
2021/05/01 12:27:56;;;;;;;6.80;2.80;;;18.70;36.00;;;;;;5081774;28;20032;-75
2021/05/01 12:30:38;;;;;;;5.07;2.65;;;18.40;36.80;;;;;;5072771;28;20028;-74
2021/05/01 12:33:31;;;;;;;3.53;2.30;;;18.10;37.30;;;;;;5089588;28;20060;-75
2021/05/01 12:36:01;;;;;;;7.00;2.55;;;17.70;37.90;;;;;;5070851;28;20032;-74
2021/05/01 12:38:29;;;;;;;8.52;2.80;;;17.50;38.30;;;;;;5073731;28;20036;-75
2021/05/01 12:41:06;;;;;;;4.40;2.80;;;17.30;38.80;;;;;;5072192;28;20078;-75
2021/05/01 12:43:32;;;;;;;5.75;3.00;;;17.00;39.00;;;;;;5071598;28;20397;-74
2021/05/01 12:46:14;;;;;;;4.32;2.50;;;16.80;39.50;;;;;;5066105;28;20021;-74